Aérodrome :
LOGIN :

S'inscrire | Disclaimer

   EN    FR    IT 

 










Légende :    VFR   VFR Marginal   IFR   IFR Intensif   IFR Très Intensif
Visi : 
Plafond : 
>= 8 km
>= 3000ft
5 à 8 km
1000 à 3000 ft
1500m à 5 km
500 à 1000 ft
800 à 1500m
200 à 500 ft
< 800m
< 200 ft
Symboles :   Orages  Brouillard  Fortes neiges  Fortes précipitations  Vent > 20 kt
SIGMETs :   Divers  Orages  Givrage  Turbulence  Onde Orograph.  Cendres Volcan.






- Altitude de l'aérodrome : 614 ft
- Code IATA : CRL


EBCI - Charleroi

DERNIER METAR :
  • 181750Z 03006KT 300V060 3500 RA SCT003 BKN007 16/16 Q1012 TEMPO 2500 RA

METARs EXPIRÉS :
  • 181720Z 02009KT 6000 RA SCT003 BKN008 16/16 Q1012 TEMPO 4000 RA
  • 181650Z 02007KT 340V040 6000 RA SCT007 BKN016 17/16 Q1012 TEMPO 3500 RA BKN007
  • 181620Z 02005KT 340V040 6000 RA SCT007 BKN016 17/16 Q1012 TEMPO 3500 RA BKN007
  • 181550Z VRB03KT 3500 RA SCT002 BKN006 BKN008CB 17/16 Q1013 TEMPO 2000 RA BKN004
  • 181520Z VRB02KT 1600 RA SCT002 BKN006 18/17 Q1012 TEMPO BKN009
  • 181450Z 01005KT 2500 RA SCT005 BKN013 18/17 Q1012 TEMPO BKN009
  • 181420Z 32003KT 290V350 9999 SCT011 BKN016 20/16 Q1012 NOSIG
  • 181350Z VRB01KT 9999 SCT011 BKN016 20/16 Q1012 NOSIG
  • 181320Z VRB02KT 9999 SCT011 BKN016 21/15 Q1012 NOSIG
  • 181250Z VRB01KT 9999 SCT011 BKN016 20/16 Q1012 NOSIG

TAF TAF EBCI
Valide du 18 à 18h jusqu'au 20 à 00h UTC


181718Z 1818/1924 03007KT 9999 SCT020 BKN035
TEMPO 1818/1910 4000 SHRA RA BKN008
PROB30
TEMPO 1818/1820 VRB18G36KT 2500 TSRA TSGR BKN008 BKN014CB
BECMG 1820/1823 SCT005 BKN009
PROB40
TEMPO 1900/1908 2500 DZRA DZ BR BKN003
PROB30
TEMPO 1900/1906 0500 FG BKN001
BECMG 1909/1911 SCT020



MET'MAP, la Météo Aéronautique d'un coup d'oeil ! - Copyright ORBIFLY Décembre 2007 - Disclaimer

ORBIFLY MET'MAP TEAM :

Programmation & Développement : Alexandra Zaïnal
Sur une idée originale de : Baudouin d'Aumeries
Soutien technique & logistique : Manuel Goepfert
Assistance : Marc-Olivier Méhu




SOURCES & CREDITS :

   NOAA